sensor_id;sensor_type;location;lat;lon;timestamp;pressure;altitude;pressure_sealevel;temperature;humidity
52625;BME280;38519;52.540;13.410;2022-08-03T00:01:15;101007.16;;;21.19;51.92
52625;BME280;38519;52.540;13.410;2022-08-03T00:03:40;101004.50;;;21.19;51.62
52625;BME280;38519;52.540;13.410;2022-08-03T00:06:05;101002.91;;;21.24;51.63
52625;BME280;38519;52.540;13.410;2022-08-03T00:08:31;101002.03;;;21.25;51.61
52625;BME280;38519;52.540;13.410;2022-08-03T00:10:56;101000.13;;;21.21;51.76
52625;BME280;38519;52.540;13.410;2022-08-03T00:13:21;101007.22;;;21.22;51.75
52625;BME280;38519;52.540;13.410;2022-08-03T00:15:47;101000.19;;;21.22;51.72
52625;BME280;38519;52.540;13.410;2022-08-03T00:18:12;100996.56;;;21.20;52.03
52625;BME280;38519;52.540;13.410;2022-08-03T00:20:37;100993.81;;;21.17;51.75
52625;BME280;38519;52.540;13.410;2022-08-03T00:23:03;101000.44;;;21.30;52.09
52625;BME280;38519;52.540;13.410;2022-08-03T00:25:28;100996.28;;;21.38;51.77
52625;BME280;38519;52.540;13.410;2022-08-03T00:27:54;100996.41;;;21.41;51.85
52625;BME280;38519;52.540;13.410;2022-08-03T00:30:19;101000.28;;;21.25;53.33
52625;BME280;38519;52.540;13.410;2022-08-03T00:32:44;100987.59;;;21.17;53.81
52625;BME280;38519;52.540;13.410;2022-08-03T00:35:10;100994.28;;;21.05;54.71
52625;BME280;38519;52.540;13.410;2022-08-03T00:37:36;100983.44;;;20.99;54.38
52625;BME280;38519;52.540;13.410;2022-08-03T00:40:02;100981.56;;;20.95;54.98
52625;BME280;38519;52.540;13.410;2022-08-03T00:42:27;100974.69;;;21.02;54.39
52625;BME280;38519;52.540;13.410;2022-08-03T00:44:52;100979.16;;;21.03;54.66
52625;BME280;38519;52.540;13.410;2022-08-03T00:47:18;100980.22;;;21.08;54.17
52625;BME280;38519;52.540;13.410;2022-08-03T00:49:44;100989.03;;;21.07;54.04
52625;BME280;38519;52.540;13.410;2022-08-03T00:52:10;100978.63;;;21.13;54.11
52625;BME280;38519;52.540;13.410;2022-08-03T00:54:36;100979.41;;;21.10;54.21
52625;BME280;38519;52.540;13.410;2022-08-03T00:57:02;100971.31;;;21.07;53.94
52625;BME280;38519;52.540;13.410;2022-08-03T00:59:28;100971.16;;;21.01;54.16
52625;BME280;38519;52.540;13.410;2022-08-03T01:01:53;100971.25;;;21.04;54.02
52625;BME280;38519;52.540;13.410;2022-08-03T01:04:19;100978.13;;;20.99;54.56
52625;BME280;38519;52.540;13.410;2022-08-03T01:11:54;100971.72;;;20.92;53.69
52625;BME280;38519;52.540;13.410;2022-08-03T01:14:24;100977.13;;;20.96;52.67
52625;BME280;38519;52.540;13.410;2022-08-03T01:19:59;100961.53;;;21.05;52.55
52625;BME280;38519;52.540;13.410;2022-08-03T01:24:52;100957.00;;;21.02;52.15
52625;BME280;38519;52.540;13.410;2022-08-03T01:27:21;100957.00;;;21.02;52.27
52625;BME280;38519;52.540;13.410;2022-08-03T01:35:08;100957.47;;;21.16;52.43
52625;BME280;38519;52.540;13.410;2022-08-03T01:37:38;100954.03;;;21.19;52.13
52625;BME280;38519;52.540;13.410;2022-08-03T01:40:05;100961.03;;;21.17;52.46
52625;BME280;38519;52.540;13.410;2022-08-03T01:42:32;100953.22;;;21.21;51.73
52625;BME280;38519;52.540;13.410;2022-08-03T01:44:58;100949.63;;;21.19;51.84
52625;BME280;38519;52.540;13.410;2022-08-03T01:47:24;100952.22;;;21.18;52.38
52625;BME280;38519;52.540;13.410;2022-08-03T01:49:51;100952.84;;;21.10;52.43
52625;BME280;38519;52.540;13.410;2022-08-03T01:52:17;100955.38;;;21.06;52.19
52625;BME280;38519;52.540;13.410;2022-08-03T01:54:44;100954.50;;;21.07;52.27
52625;BME280;38519;52.540;13.410;2022-08-03T01:57:10;100951.06;;;21.09;52.57
52625;BME280;38519;52.540;13.410;2022-08-03T01:59:37;100948.41;;;21.09;52.71
52625;BME280;38519;52.540;13.410;2022-08-03T02:02:03;100944.09;;;21.13;52.73
52625;BME280;38519;52.540;13.410;2022-08-03T02:04:29;100946.81;;;21.15;52.56
52625;BME280;38519;52.540;13.410;2022-08-03T02:06:54;100946.88;;;21.16;52.45
52625;BME280;38519;52.540;13.410;2022-08-03T02:09:21;100946.19;;;21.23;52.18
52625;BME280;38519;52.540;13.410;2022-08-03T02:11:47;100943.50;;;21.22;51.92
52625;BME280;38519;52.540;13.410;2022-08-03T02:14:14;100944.38;;;21.21;52.30
52625;BME280;38519;52.540;13.410;2022-08-03T02:16:40;100944.31;;;21.19;51.81
52625;BME280;38519;52.540;13.410;2022-08-03T02:19:07;100944.31;;;21.19;51.44
52625;BME280;38519;52.540;13.410;2022-08-03T02:21:35;100938.13;;;21.20;51.42
52625;BME280;38519;52.540;13.410;2022-08-03T02:24:01;100947.13;;;21.24;52.04
52625;BME280;38519;52.540;13.410;2022-08-03T02:26:28;100947.28;;;21.28;51.39
52625;BME280;38519;52.540;13.410;2022-08-03T02:28:54;100936.78;;;21.33;51.09
52625;BME280;38519;52.540;13.410;2022-08-03T02:31:21;100940.63;;;21.41;50.49
52625;BME280;38519;52.540;13.410;2022-08-03T02:33:55;100940.66;;;21.43;51.33
52625;BME280;38519;52.540;13.410;2022-08-03T02:36:22;100938.59;;;21.34;51.46
52625;BME280;38519;52.540;13.410;2022-08-03T02:38:51;100939.41;;;21.32;51.31
52625;BME280;38519;52.540;13.410;2022-08-03T02:41:19;100935.88;;;21.33;52.08
52625;BME280;38519;52.540;13.410;2022-08-03T02:43:47;100935.94;;;21.34;51.34
52625;BME280;38519;52.540;13.410;2022-08-03T02:46:16;100939.38;;;21.30;51.92
52625;BME280;38519;52.540;13.410;2022-08-03T02:48:42;100941.03;;;21.28;51.33
52625;BME280;38519;52.540;13.410;2022-08-03T02:51:09;100950.00;;;21.30;52.15
52625;BME280;38519;52.540;13.410;2022-08-03T02:53:34;100946.41;;;21.29;52.20
52625;BME280;38519;52.540;13.410;2022-08-03T02:56:00;100948.22;;;21.31;52.03
52625;BME280;38519;52.540;13.410;2022-08-03T02:58:26;100941.75;;;21.22;51.34
52625;BME280;38519;52.540;13.410;2022-08-03T03:00:52;100946.09;;;21.20;51.78
52625;BME280;38519;52.540;13.410;2022-08-03T03:03:19;100952.44;;;21.24;51.54
52625;BME280;38519;52.540;13.410;2022-08-03T03:05:44;100956.72;;;21.20;51.21
52625;BME280;38519;52.540;13.410;2022-08-03T03:08:13;100956.97;;;21.28;50.78
52625;BME280;38519;52.540;13.410;2022-08-03T03:10:39;100948.00;;;21.24;51.60
52625;BME280;38519;52.540;13.410;2022-08-03T03:13:05;100955.81;;;21.20;52.26
52625;BME280;38519;52.540;13.410;2022-08-03T03:15:31;100959.38;;;21.20;51.37
52625;BME280;38519;52.540;13.410;2022-08-03T03:17:59;100949.69;;;21.21;51.78
52625;BME280;38519;52.540;13.410;2022-08-03T03:20:25;100955.16;;;21.25;51.26
52625;BME280;38519;52.540;13.410;2022-08-03T03:22:52;100953.31;;;21.24;50.43
52625;BME280;38519;52.540;13.410;2022-08-03T03:25:18;100954.06;;;21.20;51.53
52625;BME280;38519;52.540;13.410;2022-08-03T03:27:45;100953.94;;;21.16;51.14
52625;BME280;38519;52.540;13.410;2022-08-03T03:30:10;100953.81;;;21.13;51.63
52625;BME280;38519;52.540;13.410;2022-08-03T03:32:36;100954.56;;;21.08;51.14
52625;BME280;38519;52.540;13.410;2022-08-03T03:35:01;100951.91;;;21.08;50.86
52625;BME280;38519;52.540;13.410;2022-08-03T03:37:28;100947.41;;;21.06;51.13
52625;BME280;38519;52.540;13.410;2022-08-03T03:39:54;100948.78;;;20.95;52.25
52625;BME280;38519;52.540;13.410;2022-08-03T03:42:19;100947.66;;;20.88;52.17
52625;BME280;38519;52.540;13.410;2022-08-03T03:44:45;100952.88;;;20.85;52.00
52625;BME280;38519;52.540;13.410;2022-08-03T03:47:10;100950.25;;;20.86;52.02
52625;BME280;38519;52.540;13.410;2022-08-03T03:49:35;100957.16;;;20.81;52.19
52625;BME280;38519;52.540;13.410;2022-08-03T03:52:01;100948.94;;;20.73;53.59
52625;BME280;38519;52.540;13.410;2022-08-03T03:54:26;100941.69;;;20.68;54.00
52625;BME280;38519;52.540;13.410;2022-08-03T03:57:02;100944.28;;;20.66;54.03
52625;BME280;38519;52.540;13.410;2022-08-03T03:59:27;100936.38;;;20.68;53.78
52625;BME280;38519;52.540;13.410;2022-08-03T04:01:53;100944.38;;;20.69;53.64
52625;BME280;38519;52.540;13.410;2022-08-03T04:04:18;100941.03;;;20.75;52.70
52625;BME280;38519;52.540;13.410;2022-08-03T04:07:02;100943.06;;;20.82;52.68
52625;BME280;38519;52.540;13.410;2022-08-03T04:09:46;100944.84;;;20.83;52.89
52625;BME280;38519;52.540;13.410;2022-08-03T04:12:30;100956.44;;;20.85;52.91
52625;BME280;38519;52.540;13.410;2022-08-03T04:14:55;100944.13;;;20.87;52.92
52625;BME280;38519;52.540;13.410;2022-08-03T04:17:22;100949.59;;;20.92;52.78
52625;BME280;38519;52.540;13.410;2022-08-03T04:19:52;100948.00;;;20.97;52.79
52625;BME280;38519;52.540;13.410;2022-08-03T04:22:19;100942.84;;;21.02;52.38
52625;BME280;38519;52.540;13.410;2022-08-03T04:24:50;100951.59;;;20.99;52.44
52625;BME280;38519;52.540;13.410;2022-08-03T04:27:17;100955.22;;;21.01;52.01
52625;BME280;38519;52.540;13.410;2022-08-03T04:29:45;100955.16;;;21.00;52.09
52625;BME280;38519;52.540;13.410;2022-08-03T04:32:11;100951.59;;;20.99;52.33
52625;BME280;38519;52.540;13.410;2022-08-03T04:34:37;100956.78;;;20.96;52.36
52625;BME280;38519;52.540;13.410;2022-08-03T04:37:04;100955.00;;;20.95;51.69
52625;BME280;38519;52.540;13.410;2022-08-03T04:39:33;100961.00;;;20.89;52.69
52625;BME280;38519;52.540;13.410;2022-08-03T04:42:04;100960.88;;;20.86;52.84
52625;BME280;38519;52.540;13.410;2022-08-03T04:44:30;100959.19;;;20.88;51.95
52625;BME280;38519;52.540;13.410;2022-08-03T04:46:59;100958.50;;;20.94;52.36
52625;BME280;38519;52.540;13.410;2022-08-03T04:49:25;100954.91;;;20.92;51.40
52625;BME280;38519;52.540;13.410;2022-08-03T04:51:51;100965.63;;;20.95;52.01
52625;BME280;38519;52.540;13.410;2022-08-03T04:54:17;100958.44;;;20.92;51.86
52625;BME280;38519;52.540;13.410;2022-08-03T04:56:42;100955.94;;;20.97;51.13
52625;BME280;38519;52.540;13.410;2022-08-03T04:59:08;100960.47;;;21.00;51.40
52625;BME280;38519;52.540;13.410;2022-08-03T05:01:33;100959.72;;;21.04;51.29
52625;BME280;38519;52.540;13.410;2022-08-03T05:03:59;100965.25;;;21.10;51.00
52625;BME280;38519;52.540;13.410;2022-08-03T05:06:24;100960.09;;;21.15;50.58
52625;BME280;38519;52.540;13.410;2022-08-03T05:08:50;100966.44;;;21.20;50.93
52625;BME280;38519;52.540;13.410;2022-08-03T05:11:16;100968.47;;;21.27;49.94
52625;BME280;38519;52.540;13.410;2022-08-03T05:13:41;100967.72;;;21.31;50.03
52625;BME280;38519;52.540;13.410;2022-08-03T05:16:07;100972.19;;;21.32;49.92
52625;BME280;38519;52.540;13.410;2022-08-03T05:18:34;100969.72;;;21.38;48.89
52625;BME280;38519;52.540;13.410;2022-08-03T05:21:00;100971.63;;;21.42;49.04
52625;BME280;38519;52.540;13.410;2022-08-03T05:23:26;100968.22;;;21.46;48.99
52625;BME280;38519;52.540;13.410;2022-08-03T05:25:51;100964.00;;;21.52;48.27
52625;BME280;38519;52.540;13.410;2022-08-03T05:28:17;100971.28;;;21.57;48.03
52625;BME280;38519;52.540;13.410;2022-08-03T05:30:44;100966.03;;;21.60;48.14
52625;BME280;38519;52.540;13.410;2022-08-03T05:33:10;100972.47;;;21.67;47.65
52625;BME280;38519;52.540;13.410;2022-08-03T05:35:35;100969.91;;;21.70;47.49
52625;BME280;38519;52.540;13.410;2022-08-03T05:38:03;100972.69;;;21.75;48.19
52625;BME280;38519;52.540;13.410;2022-08-03T05:40:29;100975.38;;;21.76;47.92
52625;BME280;38519;52.540;13.410;2022-08-03T05:42:54;100967.59;;;21.82;47.72
52625;BME280;38519;52.540;13.410;2022-08-03T05:45:20;100970.38;;;21.86;47.80
52625;BME280;38519;52.540;13.410;2022-08-03T05:47:45;100979.22;;;21.85;47.78
52625;BME280;38519;52.540;13.410;2022-08-03T05:50:11;100975.03;;;21.93;47.69
52625;BME280;38519;52.540;13.410;2022-08-03T05:52:37;100972.53;;;21.99;47.37
52625;BME280;38519;52.540;13.410;2022-08-03T05:55:06;100972.91;;;22.11;47.37
52625;BME280;38519;52.540;13.410;2022-08-03T05:57:32;100978.47;;;22.19;47.17
52625;BME280;38519;52.540;13.410;2022-08-03T05:59:58;100980.38;;;22.25;47.11
52625;BME280;38519;52.540;13.410;2022-08-03T06:02:25;100980.69;;;22.34;46.39
52625;BME280;38519;52.540;13.410;2022-08-03T06:04:50;100976.78;;;22.51;46.24
52625;BME280;38519;52.540;13.410;2022-08-03T06:07:15;100979.66;;;22.59;45.89
52625;BME280;38519;52.540;13.410;2022-08-03T06:09:41;100984.28;;;22.66;45.64
52625;BME280;38519;52.540;13.410;2022-08-03T06:12:06;100981.69;;;22.69;46.14
52625;BME280;38519;52.540;13.410;2022-08-03T06:14:32;100980.03;;;22.73;45.60
52625;BME280;38519;52.540;13.410;2022-08-03T06:16:57;100989.28;;;22.86;45.35
52625;BME280;38519;52.540;13.410;2022-08-03T06:19:22;100985.03;;;22.94;44.87
52625;BME280;38519;52.540;13.410;2022-08-03T06:21:48;100976.25;;;22.98;44.72
52625;BME280;38519;52.540;13.410;2022-08-03T06:24:14;100979.41;;;23.15;43.50
52625;BME280;38519;52.540;13.410;2022-08-03T06:26:40;100982.34;;;23.26;43.33
52625;BME280;38519;52.540;13.410;2022-08-03T06:29:06;100980.75;;;23.33;43.49
52625;BME280;38519;52.540;13.410;2022-08-03T06:31:31;100980.88;;;23.37;43.71
52625;BME280;38519;52.540;13.410;2022-08-03T06:33:56;100977.44;;;23.43;43.47
52625;BME280;38519;52.540;13.410;2022-08-03T06:36:22;100983.09;;;23.57;42.66
52625;BME280;38519;52.540;13.410;2022-08-03T06:38:47;100984.31;;;23.70;42.28
52625;BME280;38519;52.540;13.410;2022-08-03T06:41:13;100986.31;;;23.80;42.18
52625;BME280;38519;52.540;13.410;2022-08-03T06:43:39;100985.81;;;23.95;41.87
52625;BME280;38519;52.540;13.410;2022-08-03T06:46:05;100978.88;;;24.03;42.06
52625;BME280;38519;52.540;13.410;2022-08-03T06:48:30;100981.53;;;24.03;42.19
52625;BME280;38519;52.540;13.410;2022-08-03T06:50:55;100982.56;;;24.10;41.60
52625;BME280;38519;52.540;13.410;2022-08-03T06:53:21;100985.50;;;24.24;41.14
52625;BME280;38519;52.540;13.410;2022-08-03T06:55:46;100975.91;;;24.30;40.94
52625;BME280;38519;52.540;13.410;2022-08-03T06:58:12;100981.44;;;24.41;40.86
52625;BME280;38519;52.540;13.410;2022-08-03T07:00:37;100982.56;;;24.52;40.34
52625;BME280;38519;52.540;13.410;2022-08-03T07:03:02;100980.00;;;24.57;40.57
52625;BME280;38519;52.540;13.410;2022-08-03T07:05:28;100978.34;;;24.64;40.48
52625;BME280;38519;52.540;13.410;2022-08-03T07:07:54;100978.47;;;24.70;40.58
52625;BME280;38519;52.540;13.410;2022-08-03T07:10:21;100990.03;;;24.67;40.86
52625;BME280;38519;52.540;13.410;2022-08-03T07:12:46;100974.91;;;24.69;40.74
52625;BME280;38519;52.540;13.410;2022-08-03T07:15:11;100978.66;;;24.79;40.45
52625;BME280;38519;52.540;13.410;2022-08-03T07:17:37;100980.66;;;24.91;40.80
52625;BME280;38519;52.540;13.410;2022-08-03T07:20:06;100987.09;;;25.02;40.19
52625;BME280;38519;52.540;13.410;2022-08-03T07:22:33;100984.56;;;25.10;40.48
52625;BME280;38519;52.540;13.410;2022-08-03T07:24:58;100985.63;;;25.20;40.22
52625;BME280;38519;52.540;13.410;2022-08-03T07:27:24;100982.19;;;25.27;39.42
52625;BME280;38519;52.540;13.410;2022-08-03T07:29:51;100989.41;;;25.31;40.09
52625;BME280;38519;52.540;13.410;2022-08-03T07:32:16;100985.06;;;25.36;39.66
52625;BME280;38519;52.540;13.410;2022-08-03T07:34:42;100980.72;;;25.44;40.13
52625;BME280;38519;52.540;13.410;2022-08-03T07:37:07;100979.00;;;25.48;39.73
52625;BME280;38519;52.540;13.410;2022-08-03T07:39:32;100977.44;;;25.62;39.22
52625;BME280;38519;52.540;13.410;2022-08-03T07:41:57;100980.31;;;25.75;39.17
52625;BME280;38519;52.540;13.410;2022-08-03T07:44:24;100974.13;;;25.80;39.14
52625;BME280;38519;52.540;13.410;2022-08-03T07:46:49;100984.06;;;25.88;39.31
52625;BME280;38519;52.540;13.410;2022-08-03T07:49:15;100978.03;;;26.01;38.64
52625;BME280;38519;52.540;13.410;2022-08-03T07:51:40;100979.13;;;26.15;38.39
52625;BME280;38519;52.540;13.410;2022-08-03T07:54:05;100979.19;;;26.22;38.64
52625;BME280;38519;52.540;13.410;2022-08-03T07:56:31;100984.50;;;26.19;38.91
52625;BME280;38519;52.540;13.410;2022-08-03T07:58:57;100985.44;;;26.22;38.34
52625;BME280;38519;52.540;13.410;2022-08-03T08:01:23;100985.47;;;26.24;38.52
52625;BME280;38519;52.540;13.410;2022-08-03T08:03:49;100982.00;;;26.31;38.44
52625;BME280;38519;52.540;13.410;2022-08-03T08:06:15;100987.53;;;26.46;37.80
52625;BME280;38519;52.540;13.410;2022-08-03T08:08:41;100981.38;;;26.53;38.12
52625;BME280;38519;52.540;13.410;2022-08-03T08:11:07;100971.78;;;26.69;37.17
52625;BME280;38519;52.540;13.410;2022-08-03T08:13:32;100979.84;;;26.76;36.69
52625;BME280;38519;52.540;13.410;2022-08-03T08:15:57;100986.19;;;26.81;36.87
52625;BME280;38519;52.540;13.410;2022-08-03T08:18:22;100979.94;;;26.85;36.63
52625;BME280;38519;52.540;13.410;2022-08-03T08:20:48;100988.97;;;26.93;36.04
52625;BME280;38519;52.540;13.410;2022-08-03T08:23:13;100985.44;;;26.96;35.95
52625;BME280;38519;52.540;13.410;2022-08-03T08:25:38;100981.03;;;27.04;35.92
52625;BME280;38519;52.540;13.410;2022-08-03T08:28:04;100982.06;;;27.20;35.75
52625;BME280;38519;52.540;13.410;2022-08-03T08:30:30;100988.50;;;27.36;34.64
52625;BME280;38519;52.540;13.410;2022-08-03T08:32:55;100991.28;;;27.45;34.84
52625;BME280;38519;52.540;13.410;2022-08-03T08:35:22;100991.31;;;27.50;34.65
52625;BME280;38519;52.540;13.410;2022-08-03T08:37:47;100986.91;;;27.59;34.59
52625;BME280;38519;52.540;13.410;2022-08-03T08:40:12;100988.69;;;27.60;33.94
52625;BME280;38519;52.540;13.410;2022-08-03T08:42:39;100988.72;;;27.64;34.16
52625;BME280;38519;52.540;13.410;2022-08-03T08:45:04;100987.84;;;27.68;34.05
52625;BME280;38519;52.540;13.410;2022-08-03T08:47:31;100986.97;;;27.70;34.01
52625;BME280;38519;52.540;13.410;2022-08-03T08:49:57;100986.06;;;27.70;33.69
52625;BME280;38519;52.540;13.410;2022-08-03T08:52:31;100984.28;;;27.73;34.03
52625;BME280;38519;52.540;13.410;2022-08-03T08:54:57;100981.66;;;27.78;33.90
52625;BME280;38519;52.540;13.410;2022-08-03T08:57:25;100985.31;;;27.91;33.68
52625;BME280;38519;52.540;13.410;2022-08-03T08:59:50;100983.50;;;27.91;33.66
52625;BME280;38519;52.540;13.410;2022-08-03T09:02:18;100992.53;;;27.95;34.01
52625;BME280;38519;52.540;13.410;2022-08-03T09:04:43;100981.75;;;27.93;33.76
52625;BME280;38519;52.540;13.410;2022-08-03T09:07:09;100978.19;;;27.96;33.24
52625;BME280;38519;52.540;13.410;2022-08-03T09:09:34;100978.22;;;27.99;33.67
52625;BME280;38519;52.540;13.410;2022-08-03T09:12:00;100980.09;;;28.17;33.61
52625;BME280;38519;52.540;13.410;2022-08-03T09:14:25;100976.59;;;28.33;33.10
52625;BME280;38519;52.540;13.410;2022-08-03T09:16:54;100971.28;;;28.40;32.79
52625;BME280;38519;52.540;13.410;2022-08-03T09:19:21;100972.19;;;28.46;32.80
52625;BME280;38519;52.540;13.410;2022-08-03T09:21:47;100971.34;;;28.58;32.51
52625;BME280;38519;52.540;13.410;2022-08-03T09:24:30;100972.28;;;28.71;32.65
52625;BME280;38519;52.540;13.410;2022-08-03T09:26:56;100964.22;;;28.80;32.78
52625;BME280;38519;52.540;13.410;2022-08-03T09:29:21;100966.91;;;28.79;32.73
52625;BME280;38519;52.540;13.410;2022-08-03T09:31:47;100969.59;;;28.80;32.74
52625;BME280;38519;52.540;13.410;2022-08-03T09:34:13;100961.53;;;28.80;31.90
52625;BME280;38519;52.540;13.410;2022-08-03T09:39:09;100970.53;;;28.92;32.46
52625;BME280;38519;52.540;13.410;2022-08-03T09:41:42;100967.84;;;28.96;32.52
52625;BME280;38519;52.540;13.410;2022-08-03T09:44:08;100973.25;;;29.09;32.48
52625;BME280;38519;52.540;13.410;2022-08-03T09:46:46;100965.19;;;29.26;32.19
52625;BME280;38519;52.540;13.410;2022-08-03T09:49:12;100975.06;;;29.31;31.55
52625;BME280;38519;52.540;13.410;2022-08-03T09:51:38;100968.78;;;29.48;31.12
52625;BME280;38519;52.540;13.410;2022-08-03T09:54:04;100975.03;;;29.54;30.82
52625;BME280;38519;52.540;13.410;2022-08-03T09:56:39;100968.78;;;29.52;30.26
52625;BME280;38519;52.540;13.410;2022-08-03T09:59:04;100969.66;;;29.60;30.85
52625;BME280;38519;52.540;13.410;2022-08-03T10:01:33;100972.34;;;29.54;30.79
52625;BME280;38519;52.540;13.410;2022-08-03T10:03:59;100965.16;;;29.64;30.59
52625;BME280;38519;52.540;13.410;2022-08-03T10:06:24;100955.31;;;29.60;30.83
52625;BME280;38519;52.540;13.410;2022-08-03T10:09:03;100960.66;;;29.68;30.73
52625;BME280;38519;52.540;13.410;2022-08-03T10:11:29;100952.59;;;29.78;30.37
52625;BME280;38519;52.540;13.410;2022-08-03T10:13:55;100950.81;;;29.74;30.48
52625;BME280;38519;52.540;13.410;2022-08-03T10:16:20;100957.97;;;29.88;30.95
52625;BME280;38519;52.540;13.410;2022-08-03T10:18:46;100950.75;;;29.98;30.09
52625;BME280;38519;52.540;13.410;2022-08-03T10:21:11;100955.22;;;30.02;30.11
52625;BME280;38519;52.540;13.410;2022-08-03T10:23:40;100949.81;;;30.09;30.14
52625;BME280;38519;52.540;13.410;2022-08-03T10:26:06;100947.09;;;30.17;30.65
52625;BME280;38519;52.540;13.410;2022-08-03T10:28:37;100942.56;;;30.25;29.96
52625;BME280;38519;52.540;13.410;2022-08-03T10:31:04;100949.75;;;30.25;30.13
52625;BME280;38519;52.540;13.410;2022-08-03T10:33:33;100941.69;;;30.19;30.11
52625;BME280;38519;52.540;13.410;2022-08-03T10:36:00;100936.31;;;30.17;29.59
52625;BME280;38519;52.540;13.410;2022-08-03T10:38:31;100930.03;;;30.20;30.33
52625;BME280;38519;52.540;13.410;2022-08-03T10:40:58;100929.94;;;30.30;30.21
52625;BME280;38519;52.540;13.410;2022-08-03T10:43:26;100938.03;;;30.29;29.84
52625;BME280;38519;52.540;13.410;2022-08-03T10:45:53;100933.47;;;30.53;29.35
52625;BME280;38519;52.540;13.410;2022-08-03T10:48:20;100929.75;;;30.67;28.77
52625;BME280;38519;52.540;13.410;2022-08-03T10:50:47;100935.09;;;30.75;29.13
52625;BME280;38519;52.540;13.410;2022-08-03T10:53:13;100930.56;;;30.80;29.23
52625;BME280;38519;52.540;13.410;2022-08-03T10:55:39;100931.41;;;30.93;29.40
52625;BME280;38519;52.540;13.410;2022-08-03T11:01:08;100922.34;;;31.07;27.88
52625;BME280;38519;52.540;13.410;2022-08-03T11:06:25;100912.31;;;31.19;28.72
52625;BME280;38519;52.540;13.410;2022-08-03T11:11:35;100919.28;;;31.45;28.43
52625;BME280;38519;52.540;13.410;2022-08-03T11:14:05;100914.69;;;31.56;27.49
52625;BME280;38519;52.540;13.410;2022-08-03T11:16:36;100919.06;;;31.68;27.72
52625;BME280;38519;52.540;13.410;2022-08-03T11:19:03;100908.28;;;31.67;27.30
52625;BME280;38519;52.540;13.410;2022-08-03T11:22:02;100910.06;;;31.69;27.73
52625;BME280;38519;52.540;13.410;2022-08-03T11:30:24;100902.84;;;31.68;27.99
52625;BME280;38519;52.540;13.410;2022-08-03T11:35:06;100906.16;;;31.93;27.50
52625;BME280;38519;52.540;13.410;2022-08-03T11:37:33;100913.31;;;31.98;26.76
52625;BME280;38519;52.540;13.410;2022-08-03T11:39:59;100899.69;;;32.08;27.37
52625;BME280;38519;52.540;13.410;2022-08-03T11:44:57;100909.56;;;32.11;27.31
52625;BME280;38519;52.540;13.410;2022-08-03T11:47:24;100907.19;;;31.83;27.79
52625;BME280;38519;52.540;13.410;2022-08-03T11:49:52;100907.84;;;32.01;26.66
52625;BME280;38519;52.540;13.410;2022-08-03T11:52:19;100904.19;;;32.11;27.46
52625;BME280;38519;52.540;13.410;2022-08-03T11:54:45;100907.47;;;32.35;26.89
52625;BME280;38519;52.540;13.410;2022-08-03T11:57:27;100902.88;;;32.40;25.97
52625;BME280;38519;52.540;13.410;2022-08-03T11:59:52;100904.28;;;31.99;27.11
52625;BME280;38519;52.540;13.410;2022-08-03T12:02:17;100907.25;;;32.48;26.41
52625;BME280;38519;52.540;13.410;2022-08-03T12:04:53;100896.31;;;32.58;26.81
52625;BME280;38519;52.540;13.410;2022-08-03T12:07:19;100908.69;;;32.74;26.51
52625;BME280;38519;52.540;13.410;2022-08-03T12:12:28;100894.41;;;32.64;26.81
52625;BME280;38519;52.540;13.410;2022-08-03T12:14:54;100889.97;;;32.60;26.89
52625;BME280;38519;52.540;13.410;2022-08-03T12:17:19;100896.22;;;32.62;26.44
52625;BME280;38519;52.540;13.410;2022-08-03T12:19:44;100890.78;;;32.67;26.19
52625;BME280;38519;52.540;13.410;2022-08-03T12:22:10;100890.09;;;32.51;26.39
52625;BME280;38519;52.540;13.410;2022-08-03T12:24:42;100890.69;;;32.75;26.35
52625;BME280;38519;52.540;13.410;2022-08-03T12:27:10;100889.41;;;32.96;26.17
52625;BME280;38519;52.540;13.410;2022-08-03T12:29:35;100886.63;;;33.00;25.78
52625;BME280;38519;52.540;13.410;2022-08-03T12:32:01;100881.91;;;33.13;26.53
52625;BME280;38519;52.540;13.410;2022-08-03T12:34:48;100877.63;;;32.98;25.80
52625;BME280;38519;52.540;13.410;2022-08-03T12:37:19;100881.56;;;32.80;26.93
52625;BME280;38519;52.540;13.410;2022-08-03T12:39:55;100875.88;;;32.97;27.98
52625;BME280;38519;52.540;13.410;2022-08-03T12:42:34;100881.03;;;33.10;25.68
52625;BME280;38519;52.540;13.410;2022-08-03T12:44:59;100871.00;;;33.18;27.35
52625;BME280;38519;52.540;13.410;2022-08-03T12:47:25;100866.50;;;33.65;25.49
52625;BME280;38519;52.540;13.410;2022-08-03T12:49:51;100868.88;;;34.26;25.26
52625;BME280;38519;52.540;13.410;2022-08-03T12:52:18;100869.16;;;34.51;24.72
52625;BME280;38519;52.540;13.410;2022-08-03T12:54:54;100873.41;;;34.63;24.19
52625;BME280;38519;52.540;13.410;2022-08-03T12:57:20;100866.31;;;34.95;24.17
52625;BME280;38519;52.540;13.410;2022-08-03T12:59:46;100871.44;;;35.06;23.78
52625;BME280;38519;52.540;13.410;2022-08-03T13:02:19;100871.50;;;35.38;23.51
52625;BME280;38519;52.540;13.410;2022-08-03T13:04:45;100875.22;;;35.99;22.43
52625;BME280;38519;52.540;13.410;2022-08-03T13:07:11;100867.34;;;35.91;22.15
52625;BME280;38519;52.540;13.410;2022-08-03T13:12:12;100875.25;;;36.85;21.96
52625;BME280;38519;52.540;13.410;2022-08-03T13:14:38;100869.41;;;37.24;21.11
52625;BME280;38519;52.540;13.410;2022-08-03T13:17:04;100867.72;;;37.45;20.59
52625;BME280;38519;52.540;13.410;2022-08-03T13:19:33;100862.97;;;36.73;22.84
52625;BME280;38519;52.540;13.410;2022-08-03T13:21:59;100865.63;;;36.75;22.24